Time;durP1;ratioP1;P1;durP2;ratioP2;P2;SDS_P1;SDS_P2;PMS_P1;PMS_P2;Temp;Humidity;BMP_temperature;BMP_pressure;BME280_temperature;BME280_humidity;BME280_pressure;Samples;Min_cycle;Max_cycle;Signal;HPM_P1;HPM_P2
2022/01/20 00:01:49;;;;;;;6.22;3.58;;;;;;;;;;5034216;28;20068;-69
2022/01/20 00:28:45;;;;;;;5.60;3.33;;;;;;;;;;5033669;28;20376;-68
2022/01/20 00:37:45;;;;;;;5.25;3.22;;;;;;;;;;5033116;28;20447;-67
2022/01/20 00:40:30;;;;;;;5.47;3.33;;;;;;;;;;5031776;28;20040;-73
2022/01/20 00:43:16;;;;;;;6.57;3.80;;;;;;;;;;5032392;28;20064;-73
2022/01/20 00:46:02;;;;;;;6.93;2.95;;;;;;;;;;5032547;28;20029;-74
2022/01/20 00:48:47;;;;;;;4.93;3.20;;;;;;;;;;5032061;28;20151;-74
2022/01/20 00:51:33;;;;;;;4.70;3.15;;;;;;;;;;5032273;28;20377;-74
2022/01/20 00:54:19;;;;;;;5.75;3.55;;;;;;;;;;5032574;28;20117;-73
2022/01/20 00:57:04;;;;;;;6.63;3.45;;;;;;;;;;5032233;28;20045;-68
2022/01/20 00:59:50;;;;;;;5.93;3.38;;;;;;;;;;5031939;28;20480;-67
2022/01/20 01:02:36;;;;;;;5.72;3.25;;;;;;;;;;5032021;28;20108;-69
2022/01/20 01:05:21;;;;;;;5.38;2.85;;;;;;;;;;5031844;28;20014;-67
2022/01/20 01:08:07;;;;;;;5.95;3.25;;;;;;;;;;5031251;28;20022;-67
2022/01/20 01:10:53;;;;;;;4.65;2.90;;;;;;;;;;5031491;28;20034;-67
2022/01/20 01:13:38;;;;;;;5.35;3.22;;;;;;;;;;5030865;28;20017;-67
2022/01/20 01:16:35;;;;;;;4.80;2.80;;;;;;;;;;5031050;28;20388;-73
2022/01/20 01:22:29;;;;;;;5.30;2.60;;;;;;;;;;5032674;28;20465;-73
2022/01/20 01:25:15;;;;;;;5.38;2.58;;;;;;;;;;5030877;28;20028;-74
2022/01/20 01:28:01;;;;;;;4.80;2.80;;;;;;;;;;5032305;28;20028;-73
2022/01/20 01:33:55;;;;;;;4.72;2.67;;;;;;;;;;5032794;28;20025;-69
2022/01/20 01:39:44;;;;;;;4.18;2.50;;;;;;;;;;5032855;28;20364;-67
2022/01/20 01:42:37;;;;;;;3.72;2.25;;;;;;;;;;5031309;28;20037;-66
2022/01/20 01:45:28;;;;;;;4.15;2.10;;;;;;;;;;5044495;28;20022;-67
2022/01/20 01:48:13;;;;;;;4.53;2.38;;;;;;;;;;5031556;28;20469;-66
2022/01/20 01:51:01;;;;;;;4.45;2.53;;;;;;;;;;5031510;28;20040;-67
2022/01/20 01:53:47;;;;;;;4.07;2.55;;;;;;;;;;5031501;28;20022;-70
2022/01/20 01:56:35;;;;;;;4.20;2.28;;;;;;;;;;5031448;28;20435;-69
2022/01/20 01:59:21;;;;;;;4.63;2.50;;;;;;;;;;5032184;28;20033;-69
2022/01/20 02:02:07;;;;;;;4.10;2.15;;;;;;;;;;5031181;28;20104;-70
2022/01/20 02:04:53;;;;;;;3.83;2.60;;;;;;;;;;5031273;28;20036;-69
2022/01/20 02:19:43;;;;;;;3.92;1.98;;;;;;;;;;5036214;28;20021;-69
2022/01/20 02:22:28;;;;;;;2.88;1.90;;;;;;;;;;5034894;28;20030;-69
2022/01/20 02:25:21;;;;;;;3.50;1.80;;;;;;;;;;5035443;28;20453;-69
2022/01/20 02:28:08;;;;;;;4.40;2.28;;;;;;;;;;5034764;28;20032;-66
2022/01/20 02:30:54;;;;;;;2.85;2.00;;;;;;;;;;5034361;28;20033;-72
2022/01/20 02:33:39;;;;;;;4.35;2.78;;;;;;;;;;5033560;28;20076;-73
2022/01/20 02:36:26;;;;;;;3.40;2.40;;;;;;;;;;5034802;28;20025;-73
2022/01/20 02:45:20;;;;;;;3.70;2.25;;;;;;;;;;5035064;28;20458;-66
2022/01/20 02:48:06;;;;;;;4.13;2.97;;;;;;;;;;5034566;28;20123;-68
2022/01/20 02:50:51;;;;;;;4.22;2.00;;;;;;;;;;5034990;28;20026;-73
2022/01/20 02:53:37;;;;;;;2.78;1.70;;;;;;;;;;5035035;28;20028;-73
2022/01/20 02:56:22;;;;;;;3.65;1.70;;;;;;;;;;5032960;28;20029;-74
2022/01/20 02:59:08;;;;;;;3.90;2.20;;;;;;;;;;5034865;28;20032;-74
2022/01/20 03:01:53;;;;;;;3.25;1.80;;;;;;;;;;5034211;28;20094;-72
2022/01/20 03:04:39;;;;;;;2.45;1.50;;;;;;;;;;5034889;28;20025;-74
2022/01/20 03:07:25;;;;;;;3.50;1.92;;;;;;;;;;5033896;28;20101;-66
2022/01/20 03:10:10;;;;;;;2.88;1.90;;;;;;;;;;5032846;28;20056;-65
2022/01/20 03:12:56;;;;;;;5.55;1.73;;;;;;;;;;5033890;28;20399;-65
2022/01/20 03:15:43;;;;;;;5.35;1.42;;;;;;;;;;5035243;28;20022;-66
2022/01/20 03:18:28;;;;;;;1.73;1.50;;;;;;;;;;5032637;28;20457;-66
2022/01/20 03:21:14;;;;;;;2.03;1.55;;;;;;;;;;5033935;28;20527;-65
2022/01/20 03:23:59;;;;;;;1.73;1.17;;;;;;;;;;5033357;28;20025;-68
2022/01/20 03:26:45;;;;;;;2.80;1.50;;;;;;;;;;5032668;28;20083;-68
2022/01/20 03:29:31;;;;;;;1.85;1.63;;;;;;;;;;5033947;28;20033;-69
2022/01/20 03:32:16;;;;;;;3.75;1.40;;;;;;;;;;5032551;28;20017;-68
2022/01/20 03:35:03;;;;;;;2.10;1.52;;;;;;;;;;5034225;28;20495;-70
2022/01/20 03:37:49;;;;;;;3.90;1.60;;;;;;;;;;5032633;28;20076;-69
2022/01/20 03:40:35;;;;;;;1.92;1.70;;;;;;;;;;5033357;28;20449;-66
2022/01/20 03:43:20;;;;;;;1.30;1.20;;;;;;;;;;5033439;28;20495;-65
2022/01/20 03:46:12;;;;;;;1.75;1.23;;;;;;;;;;5034017;28;20033;-65
2022/01/20 03:49:08;;;;;;;3.30;1.40;;;;;;;;;;5034406;28;20021;-66
2022/01/20 03:51:54;;;;;;;1.65;1.30;;;;;;;;;;5032771;28;20021;-65
2022/01/20 03:54:39;;;;;;;2.80;1.73;;;;;;;;;;5033312;28;20531;-65
2022/01/20 03:57:26;;;;;;;2.30;1.58;;;;;;;;;;5031944;28;20087;-65
2022/01/20 04:00:11;;;;;;;3.63;2.15;;;;;;;;;;5033569;28;20384;-65
2022/01/20 04:02:57;;;;;;;2.05;1.50;;;;;;;;;;5031700;28;20025;-74
2022/01/20 04:05:56;;;;;;;3.53;1.80;;;;;;;;;;5032623;28;20405;-73
2022/01/20 04:08:43;;;;;;;2.28;1.80;;;;;;;;;;5034105;28;20487;-74
2022/01/20 04:11:29;;;;;;;2.65;1.65;;;;;;;;;;5032797;28;20049;-74
2022/01/20 04:14:15;;;;;;;5.30;2.50;;;;;;;;;;5033050;28;20032;-73
2022/01/20 04:17:04;;;;;;;3.00;2.00;;;;;;;;;;5032630;28;20024;-74
2022/01/20 04:19:49;;;;;;;3.50;2.03;;;;;;;;;;5032237;28;20021;-79
2022/01/20 04:22:35;;;;;;;4.53;2.35;;;;;;;;;;5031564;28;20036;-70
2022/01/20 04:25:21;;;;;;;2.20;1.90;;;;;;;;;;5032753;28;20024;-69
2022/01/20 04:28:06;;;;;;;2.63;2.17;;;;;;;;;;5032996;28;20116;-69
2022/01/20 04:30:52;;;;;;;4.82;2.30;;;;;;;;;;5031689;28;20033;-70
2022/01/20 04:33:37;;;;;;;3.83;2.50;;;;;;;;;;5033158;28;20432;-69
2022/01/20 04:36:30;;;;;;;2.63;1.90;;;;;;;;;;5032132;28;20025;-74
2022/01/20 04:39:20;;;;;;;4.25;1.98;;;;;;;;;;5032727;28;20042;-78
2022/01/20 04:42:05;;;;;;;3.80;1.70;;;;;;;;;;5031184;28;20112;-77
2022/01/20 04:44:59;;;;;;;3.20;1.90;;;;;;;;;;5032229;28;20061;-78
2022/01/20 04:47:54;;;;;;;3.55;1.83;;;;;;;;;;5032494;28;20116;-78
2022/01/20 04:59:49;;;;;;;2.67;1.90;;;;;;;;;;5032686;28;20376;-66
2022/01/20 05:02:35;;;;;;;2.42;1.80;;;;;;;;;;5032508;28;20021;-66
2022/01/20 05:05:20;;;;;;;2.67;2.05;;;;;;;;;;5031739;28;20021;-67
2022/01/20 05:08:06;;;;;;;3.95;2.03;;;;;;;;;;5032103;28;20025;-66
2022/01/20 05:10:52;;;;;;;2.50;1.63;;;;;;;;;;5032546;28;20076;-67
2022/01/20 05:13:40;;;;;;;3.28;2.17;;;;;;;;;;5032266;28;20029;-67
2022/01/20 05:16:26;;;;;;;3.60;1.85;;;;;;;;;;5067714;23;20388;-71
2022/01/20 05:19:11;;;;;;;6.32;2.10;;;;;;;;;;5060410;28;20024;-70
2022/01/20 05:21:56;;;;;;;4.18;2.22;;;;;;;;;;5062590;28;20029;-70
2022/01/20 05:24:42;;;;;;;2.67;1.98;;;;;;;;;;5067428;28;20032;-70
2022/01/20 05:27:27;;;;;;;4.32;2.58;;;;;;;;;;5062216;28;20052;-71
2022/01/20 05:30:12;;;;;;;6.25;2.53;;;;;;;;;;5064890;28;20472;-72
2022/01/20 05:32:59;;;;;;;3.80;2.00;;;;;;;;;;5063075;28;20025;-73
2022/01/20 05:35:45;;;;;;;5.78;2.70;;;;;;;;;;5066959;28;20109;-66
2022/01/20 05:38:30;;;;;;;4.15;2.67;;;;;;;;;;5064048;28;20471;-68
2022/01/20 05:41:15;;;;;;;5.18;2.08;;;;;;;;;;5063542;28;20408;-66
2022/01/20 05:44:01;;;;;;;3.85;2.53;;;;;;;;;;5070968;28;20036;-68
2022/01/20 05:46:49;;;;;;;4.68;2.85;;;;;;;;;;5061688;28;20078;-66
2022/01/20 05:49:34;;;;;;;4.57;2.25;;;;;;;;;;5059787;28;20032;-67
2022/01/20 05:52:19;;;;;;;4.80;2.45;;;;;;;;;;5044644;28;20043;-71
2022/01/20 05:55:05;;;;;;;6.13;2.60;;;;;;;;;;5043260;28;20029;-69
2022/01/20 05:57:50;;;;;;;4.70;2.20;;;;;;;;;;5047759;28;20025;-72
2022/01/20 06:00:36;;;;;;;7.03;2.40;;;;;;;;;;5048758;28;20047;-72
2022/01/20 06:03:37;;;;;;;3.67;2.10;;;;;;;;;;5048578;28;20036;-73
2022/01/20 06:06:22;;;;;;;7.68;2.40;;;;;;;;;;5052916;28;20021;-70
2022/01/20 06:09:08;;;;;;;4.25;2.33;;;;;;;;;;5052936;28;20236;-75
2022/01/20 06:11:54;;;;;;;4.90;2.50;;;;;;;;;;5048216;28;20025;-72
2022/01/20 06:14:39;;;;;;;3.80;2.72;;;;;;;;;;5048366;28;20021;-72
2022/01/20 06:17:28;;;;;;;6.22;2.88;;;;;;;;;;5051851;28;20099;-71
2022/01/20 06:20:13;;;;;;;3.72;2.60;;;;;;;;;;5043097;28;20033;-71
2022/01/20 06:22:58;;;;;;;4.80;3.25;;;;;;;;;;5031289;28;20428;-70
2022/01/20 06:25:44;;;;;;;6.30;3.33;;;;;;;;;;5048245;28;20032;-76
2022/01/20 06:28:35;;;;;;;5.55;3.20;;;;;;;;;;5037020;28;20586;-72
2022/01/20 06:31:20;;;;;;;8.70;3.40;;;;;;;;;;5050525;28;20116;-71
2022/01/20 06:34:05;;;;;;;3.63;2.63;;;;;;;;;;5044594;28;20040;-69
2022/01/20 06:36:50;;;;;;;7.05;3.80;;;;;;;;;;5026047;28;20017;-69
2022/01/20 06:39:36;;;;;;;3.90;2.40;;;;;;;;;;5047514;28;20534;-69
2022/01/20 06:42:21;;;;;;;5.03;3.00;;;;;;;;;;5050279;28;20029;-70
2022/01/20 06:45:08;;;;;;;9.27;2.95;;;;;;;;;;5044311;28;20328;-72
2022/01/20 06:47:54;;;;;;;6.43;3.03;;;;;;;;;;5049205;28;20021;-69
2022/01/20 06:50:39;;;;;;;7.25;2.88;;;;;;;;;;5048041;28;20064;-70
2022/01/20 06:53:24;;;;;;;6.63;2.55;;;;;;;;;;5034658;28;20040;-66
2022/01/20 06:56:09;;;;;;;3.58;2.00;;;;;;;;;;5037993;28;20063;-65
2022/01/20 06:58:55;;;;;;;3.83;2.10;;;;;;;;;;5044157;28;20100;-67
2022/01/20 07:01:40;;;;;;;6.38;2.45;;;;;;;;;;5049390;28;20522;-69
2022/01/20 07:04:27;;;;;;;4.93;2.35;;;;;;;;;;5044542;28;20091;-70
2022/01/20 07:07:12;;;;;;;6.10;2.40;;;;;;;;;;5043910;28;20033;-71
2022/01/20 07:09:58;;;;;;;4.53;2.72;;;;;;;;;;5033929;28;20056;-69
2022/01/20 07:12:44;;;;;;;4.78;2.70;;;;;;;;;;5044430;28;20040;-70
2022/01/20 07:15:29;;;;;;;4.72;2.80;;;;;;;;;;5046696;28;20037;-70
2022/01/20 07:18:14;;;;;;;10.57;3.30;;;;;;;;;;5047575;28;20521;-71
2022/01/20 07:20:59;;;;;;;4.93;2.80;;;;;;;;;;5044772;28;20063;-70
2022/01/20 07:23:45;;;;;;;6.60;2.78;;;;;;;;;;5041305;28;20020;-76
2022/01/20 07:26:30;;;;;;;6.93;3.58;;;;;;;;;;5043321;28;20067;-69
2022/01/20 07:29:15;;;;;;;5.32;2.47;;;;;;;;;;5046971;28;20036;-70
2022/01/20 07:32:03;;;;;;;7.15;2.70;;;;;;;;;;5039046;28;20060;-69
2022/01/20 07:34:48;;;;;;;6.75;2.08;;;;;;;;;;5043236;28;20340;-70
2022/01/20 07:37:33;;;;;;;7.45;2.05;;;;;;;;;;5039847;28;20029;-72
2022/01/20 07:40:18;;;;;;;4.00;2.25;;;;;;;;;;5046789;28;20033;-69
2022/01/20 07:43:04;;;;;;;7.40;2.28;;;;;;;;;;5049045;28;20375;-69
2022/01/20 07:45:49;;;;;;;5.57;2.55;;;;;;;;;;5041528;28;20104;-68
2022/01/20 07:48:34;;;;;;;5.82;2.55;;;;;;;;;;5042426;28;20043;-72
2022/01/20 07:51:20;;;;;;;7.90;3.17;;;;;;;;;;5046306;28;20033;-70
2022/01/20 07:54:05;;;;;;;9.25;2.78;;;;;;;;;;5047110;28;20025;-70
2022/01/20 07:56:51;;;;;;;8.23;2.42;;;;;;;;;;5043160;28;20021;-70
2022/01/20 07:59:37;;;;;;;5.47;2.80;;;;;;;;;;5047211;28;20037;-70
2022/01/20 08:02:22;;;;;;;6.38;2.75;;;;;;;;;;5047894;28;20058;-72
2022/01/20 08:05:07;;;;;;;6.40;2.50;;;;;;;;;;5037958;28;20132;-71
2022/01/20 08:07:53;;;;;;;10.15;2.92;;;;;;;;;;5048219;28;20476;-73
2022/01/20 08:10:38;;;;;;;7.50;3.28;;;;;;;;;;5030377;28;20101;-68
2022/01/20 08:13:23;;;;;;;9.90;2.60;;;;;;;;;;5047455;28;20119;-71
2022/01/20 08:16:08;;;;;;;12.43;3.50;;;;;;;;;;5047281;28;20488;-76
2022/01/20 08:18:54;;;;;;;10.65;2.90;;;;;;;;;;5046480;28;20025;-78
2022/01/20 08:21:39;;;;;;;11.10;3.00;;;;;;;;;;5033026;28;20387;-75
2022/01/20 08:24:24;;;;;;;5.95;2.97;;;;;;;;;;5046967;28;20158;-74
2022/01/20 08:27:10;;;;;;;8.25;3.60;;;;;;;;;;5047342;28;20025;-75
2022/01/20 08:29:55;;;;;;;13.13;3.33;;;;;;;;;;5042780;28;20400;-78
2022/01/20 08:32:41;;;;;;;8.77;3.58;;;;;;;;;;5043050;28;20031;-72
2022/01/20 08:35:31;;;;;;;9.73;3.20;;;;;;;;;;5044834;28;20036;-74
2022/01/20 08:38:17;;;;;;;10.27;3.42;;;;;;;;;;5041276;28;20040;-70
2022/01/20 08:41:02;;;;;;;11.65;3.25;;;;;;;;;;5033433;28;20087;-71
2022/01/20 08:43:47;;;;;;;12.35;3.10;;;;;;;;;;5041411;28;20396;-72
2022/01/20 08:46:33;;;;;;;13.93;3.90;;;;;;;;;;5040097;28;20025;-71
2022/01/20 08:49:18;;;;;;;11.73;3.72;;;;;;;;;;5044269;28;20033;-72
2022/01/20 08:52:04;;;;;;;9.65;2.80;;;;;;;;;;5032899;28;20087;-72
2022/01/20 08:54:50;;;;;;;10.63;3.42;;;;;;;;;;5047298;28;20049;-72
2022/01/20 08:57:35;;;;;;;10.40;3.45;;;;;;;;;;5045450;28;20155;-72
2022/01/20 09:00:21;;;;;;;10.60;4.32;;;;;;;;;;5045316;28;20025;-72
2022/01/20 09:03:07;;;;;;;14.80;4.18;;;;;;;;;;5045274;28;20060;-73
2022/01/20 09:05:52;;;;;;;6.40;3.00;;;;;;;;;;5039574;28;20033;-76
2022/01/20 09:08:38;;;;;;;9.95;2.97;;;;;;;;;;5044234;28;20142;-69
2022/01/20 09:11:30;;;;;;;10.10;3.67;;;;;;;;;;5038298;28;20035;-69
2022/01/20 09:17:19;;;;;;;12.13;3.60;;;;;;;;;;5045022;28;20048;-65
2022/01/20 09:20:04;;;;;;;8.95;3.17;;;;;;;;;;5045729;28;20047;-67
2022/01/20 09:22:51;;;;;;;11.35;3.22;;;;;;;;;;5027718;28;20078;-66
2022/01/20 09:25:36;;;;;;;11.27;3.22;;;;;;;;;;5040375;28;20212;-66
2022/01/20 09:28:22;;;;;;;12.63;3.00;;;;;;;;;;5045639;28;20055;-66
2022/01/20 09:31:08;;;;;;;6.63;2.45;;;;;;;;;;5039119;28;20052;-72
2022/01/20 09:33:54;;;;;;;14.00;4.00;;;;;;;;;;5045998;28;20021;-75
2022/01/20 09:36:39;;;;;;;8.52;3.38;;;;;;;;;;5028889;28;20543;-74
2022/01/20 09:39:24;;;;;;;12.65;3.08;;;;;;;;;;5042515;28;20507;-75
2022/01/20 09:42:10;;;;;;;13.88;3.17;;;;;;;;;;5030266;28;20376;-75
2022/01/20 09:44:55;;;;;;;10.02;3.40;;;;;;;;;;5038901;28;20033;-76
2022/01/20 09:47:42;;;;;;;9.13;2.75;;;;;;;;;;5040068;28;20603;-80
2022/01/20 09:50:27;;;;;;;12.25;3.53;;;;;;;;;;5028544;28;20033;-68
2022/01/20 09:53:12;;;;;;;10.80;3.08;;;;;;;;;;5032646;28;20021;-71
2022/01/20 09:55:58;;;;;;;13.70;3.30;;;;;;;;;;5031952;28;20040;-78
2022/01/20 09:58:43;;;;;;;13.90;3.35;;;;;;;;;;5027620;28;20020;-71
2022/01/20 10:01:41;;;;;;;13.18;3.50;;;;;;;;;;5030659;28;20032;-71
2022/01/20 10:04:33;;;;;;;13.85;3.50;;;;;;;;;;5037693;28;20028;-76
2022/01/20 10:07:18;;;;;;;16.02;3.38;;;;;;;;;;5043763;28;20400;-71
2022/01/20 10:10:04;;;;;;;12.98;3.47;;;;;;;;;;5043465;28;20029;-73
2022/01/20 10:12:49;;;;;;;10.32;3.78;;;;;;;;;;5030607;28;20078;-73
2022/01/20 10:15:35;;;;;;;12.25;3.60;;;;;;;;;;5045309;28;20028;-75
2022/01/20 10:18:20;;;;;;;15.35;3.45;;;;;;;;;;5025931;28;20136;-73
2022/01/20 10:21:05;;;;;;;12.05;3.60;;;;;;;;;;5047036;28;20056;-72
2022/01/20 10:23:51;;;;;;;11.95;3.30;;;;;;;;;;5031293;28;20032;-74
2022/01/20 10:26:36;;;;;;;7.45;2.70;;;;;;;;;;5046746;28;20366;-74
2022/01/20 10:29:21;;;;;;;11.48;3.35;;;;;;;;;;5026828;28;20065;-70
2022/01/20 10:32:11;;;;;;;11.40;2.95;;;;;;;;;;5041334;28;20031;-71
2022/01/20 10:35:01;;;;;;;8.50;3.42;;;;;;;;;;5032994;28;20041;-72
2022/01/20 10:38:09;;;;;;;12.75;3.95;;;;;;;;;;5032787;28;20079;-71
2022/01/20 10:40:56;;;;;;;15.38;3.03;;;;;;;;;;5060370;28;20075;-74
2022/01/20 10:43:42;;;;;;;15.48;3.67;;;;;;;;;;5029546;28;20044;-65
2022/01/20 10:46:27;;;;;;;16.52;4.85;;;;;;;;;;5046690;28;20028;-70
2022/01/20 10:49:13;;;;;;;8.50;3.03;;;;;;;;;;5042367;28;20021;-82
2022/01/20 10:52:00;;;;;;;10.60;2.70;;;;;;;;;;5032770;28;20051;-83
2022/01/20 10:54:49;;;;;;;9.73;3.17;;;;;;;;;;5043279;28;20353;-81
2022/01/20 10:57:35;;;;;;;12.75;2.70;;;;;;;;;;5033257;28;20112;-81
2022/01/20 11:00:22;;;;;;;10.05;3.20;;;;;;;;;;5048579;28;20033;-80
2022/01/20 11:03:08;;;;;;;8.60;2.90;;;;;;;;;;5029203;28;20087;-68
2022/01/20 11:05:56;;;;;;;8.52;3.58;;;;;;;;;;5040491;28;20105;-73
2022/01/20 11:08:43;;;;;;;9.55;2.95;;;;;;;;;;5049155;28;20016;-66
2022/01/20 11:11:29;;;;;;;10.32;3.58;;;;;;;;;;5041572;28;20041;-64
2022/01/20 11:14:14;;;;;;;9.07;3.33;;;;;;;;;;5030154;28;20025;-67
2022/01/20 11:17:00;;;;;;;7.78;2.85;;;;;;;;;;5043966;28;20068;-72
2022/01/20 11:19:46;;;;;;;11.70;3.30;;;;;;;;;;5046690;28;20112;-73
2022/01/20 11:22:31;;;;;;;9.52;4.13;;;;;;;;;;5033860;28;20032;-78
2022/01/20 11:25:19;;;;;;;6.50;3.58;;;;;;;;;;5033027;28;20036;-76
2022/01/20 11:28:09;;;;;;;10.63;3.67;;;;;;;;;;5035275;28;20412;-75
2022/01/20 11:31:00;;;;;;;12.95;3.53;;;;;;;;;;5047005;28;20512;-75
2022/01/20 11:33:47;;;;;;;13.85;3.60;;;;;;;;;;5049452;28;20021;-76
2022/01/20 11:36:32;;;;;;;10.60;3.60;;;;;;;;;;5044420;28;20036;-74
2022/01/20 11:39:19;;;;;;;8.07;3.28;;;;;;;;;;5043269;28;20024;-71
2022/01/20 11:42:04;;;;;;;11.35;3.40;;;;;;;;;;5059555;28;20450;-67
2022/01/20 11:44:50;;;;;;;10.25;3.30;;;;;;;;;;5034803;28;20025;-67
2022/01/20 11:47:35;;;;;;;11.55;10.45;;;;;;;;;;5040681;28;20086;-70
2022/01/20 11:50:21;;;;;;;8.48;3.60;;;;;;;;;;5047360;28;20029;-69
2022/01/20 11:53:14;;;;;;;8.88;3.13;;;;;;;;;;5043646;28;20025;-69
2022/01/20 11:55:59;;;;;;;12.18;3.50;;;;;;;;;;5041740;28;20128;-70
2022/01/20 11:58:51;;;;;;;9.13;3.40;;;;;;;;;;5041923;28;20017;-75
2022/01/20 12:01:53;;;;;;;9.68;3.17;;;;;;;;;;5028710;28;20472;-66
2022/01/20 12:04:40;;;;;;;7.38;2.75;;;;;;;;;;5058542;28;20037;-69
2022/01/20 12:07:26;;;;;;;9.07;3.35;;;;;;;;;;5043486;28;20025;-68
2022/01/20 12:10:16;;;;;;;6.20;2.80;;;;;;;;;;5048475;28;20031;-69
2022/01/20 12:13:06;;;;;;;7.85;2.45;;;;;;;;;;5046038;28;20174;-68
2022/01/20 12:15:53;;;;;;;8.80;3.05;;;;;;;;;;5045552;28;20049;-69
2022/01/20 12:18:38;;;;;;;5.03;2.45;;;;;;;;;;5042309;28;20025;-67
2022/01/20 12:21:24;;;;;;;5.78;2.30;;;;;;;;;;5041142;28;20033;-67
2022/01/20 12:24:09;;;;;;;8.90;2.83;;;;;;;;;;5048645;28;20053;-68
2022/01/20 12:26:56;;;;;;;7.38;2.30;;;;;;;;;;5043221;28;20028;-69
2022/01/20 12:29:41;;;;;;;9.77;2.92;;;;;;;;;;5046030;28;20542;-68
2022/01/20 12:32:27;;;;;;;7.75;2.75;;;;;;;;;;5034088;28;20037;-68
2022/01/20 12:35:12;;;;;;;3.30;1.58;;;;;;;;;;5043506;28;20377;-69
2022/01/20 12:37:57;;;;;;;4.72;1.60;;;;;;;;;;5027603;28;20116;-66
2022/01/20 12:40:43;;;;;;;5.43;1.20;;;;;;;;;;5042114;28;20020;-66
2022/01/20 12:43:47;;;;;;;1.83;1.15;;;;;;;;;;5043515;28;20504;-65
2022/01/20 12:46:34;;;;;;;3.53;1.38;;;;;;;;;;5042881;28;20099;-66
2022/01/20 12:49:19;;;;;;;10.20;1.50;;;;;;;;;;5020683;28;20039;-67
2022/01/20 12:52:05;;;;;;;5.75;1.45;;;;;;;;;;5043332;28;20075;-66
2022/01/20 12:54:51;;;;;;;4.80;1.38;;;;;;;;;;5042648;28;20054;-64
2022/01/20 12:57:36;;;;;;;6.30;1.50;;;;;;;;;;5042685;28;20032;-67
2022/01/20 13:00:21;;;;;;;6.53;2.20;;;;;;;;;;5045641;28;20020;-65
2022/01/20 13:03:06;;;;;;;6.78;2.00;;;;;;;;;;5028299;28;20043;-69
2022/01/20 13:05:57;;;;;;;5.15;1.63;;;;;;;;;;5045969;28;20040;-66
2022/01/20 13:08:42;;;;;;;11.00;2.25;;;;;;;;;;5060334;28;20029;-66
2022/01/20 13:11:33;;;;;;;7.53;2.78;;;;;;;;;;5044850;28;20102;-68
2022/01/20 13:14:19;;;;;;;10.40;1.67;;;;;;;;;;5032019;28;20135;-71
2022/01/20 13:17:04;;;;;;;5.43;1.92;;;;;;;;;;5042808;28;20395;-71
2022/01/20 13:19:51;;;;;;;6.88;1.83;;;;;;;;;;5032093;28;20051;-72
2022/01/20 13:22:42;;;;;;;12.70;2.78;;;;;;;;;;5044021;28;20143;-70
2022/01/20 13:25:29;;;;;;;10.70;2.17;;;;;;;;;;5045646;28;20100;-69
2022/01/20 13:28:16;;;;;;;7.57;1.83;;;;;;;;;;5046483;28;20032;-68
2022/01/20 13:31:17;;;;;;;9.05;2.08;;;;;;;;;;5020876;28;20045;-70
2022/01/20 13:34:08;;;;;;;5.85;1.95;;;;;;;;;;5043316;28;20025;-73
2022/01/20 13:36:54;;;;;;;5.80;1.92;;;;;;;;;;5020739;28;20448;-72
2022/01/20 13:39:41;;;;;;;8.82;2.15;;;;;;;;;;5044638;28;20040;-76
2022/01/20 13:42:38;;;;;;;8.70;2.42;;;;;;;;;;5045355;28;20104;-74
2022/01/20 13:45:24;;;;;;;7.38;2.03;;;;;;;;;;5046662;28;20037;-73
2022/01/20 13:48:09;;;;;;;8.43;2.35;;;;;;;;;;5038615;28;20423;-69
2022/01/20 13:50:56;;;;;;;11.05;2.47;;;;;;;;;;5044012;28;20507;-67
2022/01/20 13:53:41;;;;;;;5.15;2.15;;;;;;;;;;5024683;28;20108;-69
2022/01/20 13:56:29;;;;;;;8.75;1.95;;;;;;;;;;5024982;28;20036;-70
2022/01/20 13:59:15;;;;;;;10.77;2.13;;;;;;;;;;5030416;28;20118;-67
2022/01/20 14:02:00;;;;;;;7.70;1.65;;;;;;;;;;5031674;28;20029;-69
2022/01/20 14:04:45;;;;;;;11.48;3.78;;;;;;;;;;5028943;28;20028;-67
2022/01/20 14:07:31;;;;;;;8.55;2.83;;;;;;;;;;5037943;28;20036;-68
2022/01/20 14:10:16;;;;;;;7.38;2.22;;;;;;;;;;5047443;28;20487;-76
2022/01/20 14:13:02;;;;;;;10.30;2.38;;;;;;;;;;5051772;28;20017;-78
2022/01/20 14:15:50;;;;;;;9.13;3.05;;;;;;;;;;5048360;28;20120;-76
2022/01/20 14:18:42;;;;;;;6.05;2.67;;;;;;;;;;5034636;28;20468;-79
2022/01/20 14:21:27;;;;;;;8.43;3.00;;;;;;;;;;5036844;28;20597;-79
2022/01/20 14:24:13;;;;;;;8.18;2.63;;;;;;;;;;5036048;28;20037;-74
2022/01/20 14:27:08;;;;;;;7.43;2.80;;;;;;;;;;5048276;28;20383;-68
2022/01/20 14:29:54;;;;;;;9.45;3.00;;;;;;;;;;5050430;28;20068;-81
2022/01/20 14:32:40;;;;;;;12.25;4.30;;;;;;;;;;5048331;28;20051;-75
2022/01/20 14:35:27;;;;;;;14.93;3.13;;;;;;;;;;5049514;28;20024;-75
2022/01/20 14:38:12;;;;;;;8.10;2.95;;;;;;;;;;5047358;28;20090;-77
2022/01/20 14:40:58;;;;;;;9.65;3.28;;;;;;;;;;5048345;28;20013;-84
2022/01/20 14:43:43;;;;;;;7.72;2.58;;;;;;;;;;5050278;28;20119;-65
2022/01/20 14:46:28;;;;;;;7.05;3.10;;;;;;;;;;5043540;28;20082;-78
2022/01/20 14:49:13;;;;;;;9.70;3.45;;;;;;;;;;5029433;28;20087;-79
2022/01/20 14:51:59;;;;;;;12.68;3.40;;;;;;;;;;5031384;28;20325;-79
2022/01/20 14:54:44;;;;;;;12.65;2.92;;;;;;;;;;5039030;28;20068;-79
2022/01/20 14:57:30;;;;;;;10.85;2.55;;;;;;;;;;5031890;28;20068;-75
2022/01/20 15:00:16;;;;;;;7.85;2.95;;;;;;;;;;5042302;28;20040;-76
2022/01/20 15:03:01;;;;;;;12.80;3.15;;;;;;;;;;5045168;28;20028;-70
2022/01/20 15:05:47;;;;;;;11.07;3.15;;;;;;;;;;5048246;28;20032;-75
2022/01/20 15:08:33;;;;;;;7.40;2.85;;;;;;;;;;5042349;28;20113;-73
2022/01/20 15:11:18;;;;;;;11.02;2.80;;;;;;;;;;5045969;28;20407;-70
2022/01/20 15:14:04;;;;;;;9.43;3.20;;;;;;;;;;5043809;28;20097;-71
2022/01/20 15:16:50;;;;;;;11.10;4.20;;;;;;;;;;5032766;28;20554;-75
2022/01/20 15:19:35;;;;;;;15.40;2.85;;;;;;;;;;5063592;28;20043;-67
2022/01/20 15:22:21;;;;;;;9.75;3.15;;;;;;;;;;5048248;28;20021;-81
2022/01/20 15:25:06;;;;;;;7.65;3.45;;;;;;;;;;5032317;28;20080;-70
2022/01/20 15:27:53;;;;;;;11.60;3.10;;;;;;;;;;5045583;28;20025;-70
2022/01/20 15:30:38;;;;;;;12.75;3.25;;;;;;;;;;5042085;28;20028;-71
2022/01/20 15:33:24;;;;;;;12.38;4.53;;;;;;;;;;5029022;28;20068;-70
2022/01/20 15:36:09;;;;;;;10.88;3.25;;;;;;;;;;5032101;28;20365;-70
2022/01/20 15:38:55;;;;;;;13.73;3.35;;;;;;;;;;5024047;28;20476;-70
2022/01/20 15:41:41;;;;;;;7.80;2.92;;;;;;;;;;5048791;28;20039;-70
2022/01/20 15:44:26;;;;;;;15.70;3.67;;;;;;;;;;5043416;28;20526;-70
2022/01/20 15:47:11;;;;;;;7.80;2.53;;;;;;;;;;5031566;28;20384;-69
2022/01/20 15:49:57;;;;;;;8.73;2.72;;;;;;;;;;5029671;28;20029;-68
2022/01/20 15:52:42;;;;;;;9.13;2.85;;;;;;;;;;5034543;28;20029;-67
2022/01/20 15:55:27;;;;;;;6.35;2.75;;;;;;;;;;5043624;28;20048;-70
2022/01/20 15:58:15;;;;;;;14.05;4.47;;;;;;;;;;5048605;28;20083;-77
2022/01/20 16:01:00;;;;;;;5.93;2.10;;;;;;;;;;5021125;28;20013;-71
2022/01/20 16:03:45;;;;;;;7.95;2.97;;;;;;;;;;5041973;28;20480;-68
2022/01/20 16:06:31;;;;;;;9.18;2.72;;;;;;;;;;5031232;28;20051;-67
2022/01/20 16:09:16;;;;;;;9.90;2.63;;;;;;;;;;5035886;28;20416;-72
2022/01/20 16:12:01;;;;;;;7.45;2.85;;;;;;;;;;5031719;28;20961;-71
2022/01/20 16:14:46;;;;;;;8.60;2.45;;;;;;;;;;5033593;28;20029;-72
2022/01/20 16:17:32;;;;;;;8.18;2.28;;;;;;;;;;5040221;28;20238;-66
2022/01/20 16:20:17;;;;;;;9.75;2.83;;;;;;;;;;5031464;28;20076;-80
2022/01/20 16:23:02;;;;;;;8.82;3.10;;;;;;;;;;5042427;28;20024;-82
2022/01/20 16:25:48;;;;;;;5.40;2.25;;;;;;;;;;5048083;28;20043;-82
2022/01/20 16:28:33;;;;;;;11.95;2.65;;;;;;;;;;5032570;28;20072;-77
2022/01/20 16:31:18;;;;;;;8.65;2.78;;;;;;;;;;5045612;28;20032;-79
2022/01/20 16:34:03;;;;;;;8.23;3.50;;;;;;;;;;5050097;28;20025;-72
2022/01/20 16:36:49;;;;;;;10.80;2.63;;;;;;;;;;5029789;28;20023;-70
2022/01/20 16:39:34;;;;;;;12.07;3.10;;;;;;;;;;5031928;28;20067;-70
2022/01/20 16:42:19;;;;;;;8.98;2.78;;;;;;;;;;5046634;28;20490;-68
2022/01/20 16:45:06;;;;;;;10.07;2.65;;;;;;;;;;5038450;28;20017;-71
2022/01/20 16:47:51;;;;;;;10.95;2.30;;;;;;;;;;5042619;28;20026;-69
2022/01/20 16:50:36;;;;;;;9.57;2.45;;;;;;;;;;5049824;28;20045;-68
2022/01/20 16:53:22;;;;;;;7.22;2.17;;;;;;;;;;5021545;28;20009;-71
2022/01/20 16:56:07;;;;;;;9.13;2.25;;;;;;;;;;5038071;28;20049;-70
2022/01/20 16:58:52;;;;;;;11.25;2.97;;;;;;;;;;5046289;28;20025;-73
2022/01/20 17:01:38;;;;;;;6.10;2.65;;;;;;;;;;5047947;28;20028;-71
2022/01/20 17:04:23;;;;;;;7.72;2.55;;;;;;;;;;5027699;28;20029;-72
2022/01/20 17:07:08;;;;;;;7.50;2.92;;;;;;;;;;5041986;28;20021;-70
2022/01/20 17:09:55;;;;;;;7.55;3.13;;;;;;;;;;5029136;28;20040;-76
2022/01/20 17:12:40;;;;;;;9.00;3.13;;;;;;;;;;5047580;28;20075;-68
2022/01/20 17:15:26;;;;;;;13.05;3.28;;;;;;;;;;5044527;28;20025;-77
2022/01/20 17:18:13;;;;;;;10.65;3.60;;;;;;;;;;5041546;28;20503;-79
2022/01/20 17:20:59;;;;;;;8.73;3.45;;;;;;;;;;5037147;28;20033;-77
2022/01/20 17:23:44;;;;;;;11.10;3.80;;;;;;;;;;5056118;28;20025;-76
2022/01/20 17:26:33;;;;;;;8.55;3.30;;;;;;;;;;5035868;28;20630;-76
2022/01/20 17:29:18;;;;;;;11.68;3.22;;;;;;;;;;5037825;28;20075;-66
2022/01/20 17:32:03;;;;;;;9.00;3.72;;;;;;;;;;5044571;28;20021;-69
2022/01/20 17:34:49;;;;;;;11.40;3.80;;;;;;;;;;5047323;28;20013;-68
2022/01/20 17:37:34;;;;;;;7.97;2.58;;;;;;;;;;5047965;28;20439;-68
2022/01/20 17:40:19;;;;;;;6.90;2.20;;;;;;;;;;5047333;28;20028;-68
2022/01/20 17:43:05;;;;;;;8.40;1.92;;;;;;;;;;5045711;28;20459;-67
2022/01/20 17:45:50;;;;;;;6.57;1.80;;;;;;;;;;5027321;28;20127;-67